Greenwood Township, Michigan
Current Conditions -  °F | °C
As of 3:37 AM on Saturday 29 Nov 2014 (Local Time) from KPHN Reporting Station
Overcast Overcast  
Wind Chill: 21°   Ceiling: 7000
Heat Index: 28°   Visibility: 7mi
Dew Point: 27°   Wind: 7mph
Humidity: 93%   Direction: 150°SSE
Pressure: 30.04"   Gusts: NA
Location:  43.076°N, 82.6968°W
Report Text: KPHN 290837Z AUTO 15006KT 7SM SCT037 BKN070 OVC080 M02/M03 A3004 RMK AO2
Loading
Personal Weather Stations






























Interactive Weather Map New forecast layout! Learn more

10-Day Weather Forecast

Advertisements
Track Severe Weather on mobile